Decoded Metar for KPRN ( in _UNIDENTIFIED) (IATA:N/A) | Meteo·Mobile Aviation Weather
aviador You're here:

KPRN Decoded Metar

in _UNIDENTIFIED
Report Time2019-02-16 16:56:00
UTC Time2019-02-16 17:15:58
Flight Rules vfr VFR
WindVRB at 06 kt
Visibility9999 m
Phenomena:N/A
Clouds:Few 013 Hf
Expected CloudBase > 2,800 ft AGL from Temp-Dew spread
CeilingNone
Temp21°C (ISA +7)
Dew Point14°C (64% RH)
AAT20.1°C
QNH1009 hPa
Density Alt1,608 ft
Elevation453 ft
Report Wrong Elevation
Raw Report
KPRN 161656Z AUTO VRB06KT 10SM FEW013 21/14 A2981 RMK AO2 RAB11E24
SLP091 P0000 T02060144 $=

Extra information for KPRN:More info

Metar Taf Metar & Taf Last 4 Metars F.Rules Stats Wind Profile Meteogram Temp Stats Metar ALERT Operation Metar Decoded Social comments